createdAt,value
2023-01-31T00:00:40.753Z,1442
2023-01-31T00:05:58.959Z,1443
2023-01-31T00:11:17.211Z,1444
2023-01-31T00:16:36.142Z,1443
2023-01-31T00:21:54.731Z,1444
2023-01-31T00:27:13.617Z,1444
2023-01-31T00:32:31.895Z,1440
2023-01-31T00:37:50.412Z,1433
2023-01-31T00:43:08.383Z,1435
2023-01-31T00:48:27.188Z,1459
2023-01-31T00:53:45.396Z,1478
2023-01-31T00:59:03.955Z,1491
2023-01-31T01:04:22.509Z,1513
2023-01-31T01:09:40.728Z,1524
2023-01-31T01:14:58.984Z,1528
2023-01-31T01:20:17.187Z,1527
2023-01-31T01:25:36.146Z,1535
2023-01-31T01:30:55.475Z,1542
2023-01-31T01:36:13.771Z,1538
2023-01-31T01:41:32.523Z,1535
2023-01-31T01:46:51.416Z,1535
2023-01-31T01:52:10.278Z,1524
2023-01-31T01:57:29.207Z,1519
2023-01-31T02:02:49.038Z,1520
2023-01-31T02:08:07.651Z,1510
2023-01-31T02:13:26.190Z,1510
2023-01-31T02:18:48.101Z,1492
2023-01-31T02:24:06.527Z,1479
2023-01-31T02:29:24.745Z,1465
2023-01-31T02:34:44.310Z,1452
2023-01-31T02:40:02.802Z,1446
2023-01-31T02:45:21.982Z,1435
2023-01-31T02:50:42.082Z,1422
2023-01-31T02:56:00.359Z,1415
2023-01-31T03:01:19.380Z,1407
2023-01-31T03:06:38.228Z,1403
2023-01-31T03:11:56.411Z,1404
2023-01-31T03:17:14.906Z,1397
2023-01-31T03:22:33.426Z,1389
2023-01-31T03:27:52.160Z,1376
2023-01-31T03:33:10.653Z,1367
2023-01-31T03:38:28.909Z,1363
2023-01-31T03:43:47.375Z,1368
2023-01-31T03:49:05.872Z,1362
2023-01-31T03:54:24.372Z,1352
2023-01-31T03:59:42.859Z,1335
2023-01-31T04:05:01.090Z,1324
2023-01-31T04:10:19.301Z,1325
2023-01-31T04:15:37.236Z,1310
2023-01-31T04:20:55.459Z,1323
2023-01-31T04:26:13.698Z,1329
2023-01-31T04:31:32.511Z,1308
2023-01-31T04:36:51.056Z,1302
2023-01-31T04:42:09.881Z,1303
2023-01-31T04:47:28.991Z,1278
2023-01-31T04:52:47.187Z,1261
2023-01-31T04:58:07.103Z,1232
2023-01-31T05:03:26.420Z,1207
2023-01-31T05:08:45.152Z,1193
2023-01-31T05:14:03.110Z,1171
2023-01-31T05:19:21.487Z,1164
2023-01-31T05:24:40.224Z,1149
2023-01-31T05:29:59.203Z,1151
2023-01-31T05:35:19.008Z,1153
2023-01-31T05:40:38.538Z,1176
2023-01-31T05:45:57.559Z,1182
2023-01-31T05:51:16.307Z,1193
2023-01-31T05:56:34.572Z,1185
2023-01-31T06:01:53.063Z,1169
2023-01-31T06:07:11.773Z,1148
2023-01-31T06:12:30.901Z,1124
2023-01-31T06:17:50.416Z,1102
2023-01-31T06:23:08.999Z,1085
2023-01-31T06:28:27.247Z,1073
2023-01-31T06:33:47.894Z,1058
2023-01-31T06:39:06.580Z,1046
2023-01-31T06:44:26.627Z,1031
2023-01-31T06:49:45.748Z,1022
2023-01-31T06:55:04.249Z,1006
2023-01-31T07:00:22.456Z,1006
2023-01-31T07:05:41.035Z,1008
2023-01-31T07:10:59.915Z,1003
2023-01-31T07:16:18.197Z,1002
2023-01-31T07:21:36.837Z,998
2023-01-31T07:26:55.416Z,987
2023-01-31T07:32:15.021Z,984
2023-01-31T07:37:33.827Z,971
2023-01-31T07:42:52.310Z,962
2023-01-31T07:48:10.891Z,954
2023-01-31T07:53:16.063Z,953
2023-01-31T07:58:34.880Z,943
2023-01-31T08:03:53.613Z,936
2023-01-31T08:09:12.319Z,931
2023-01-31T08:14:15.461Z,926
2023-01-31T08:19:33.962Z,924
2023-01-31T08:24:52.813Z,922
2023-01-31T08:30:11.351Z,919
2023-01-31T08:35:30.273Z,907
2023-01-31T08:40:48.399Z,903
2023-01-31T08:46:06.997Z,902
2023-01-31T08:51:24.936Z,900
2023-01-31T08:56:42.903Z,884
2023-01-31T09:02:01.804Z,873
2023-01-31T09:07:20.629Z,859
2023-01-31T09:12:39.682Z,856
2023-01-31T09:17:58.188Z,843
2023-01-31T09:23:17.139Z,840
2023-01-31T09:28:20.326Z,832
2023-01-31T09:33:39.225Z,835
2023-01-31T09:38:58.212Z,829
2023-01-31T09:44:16.775Z,831
2023-01-31T09:49:35.088Z,831
2023-01-31T09:54:53.045Z,822
2023-01-31T10:00:11.369Z,819
2023-01-31T10:05:29.867Z,816
2023-01-31T10:10:49.477Z,834
2023-01-31T10:16:07.975Z,846
2023-01-31T10:21:25.940Z,830
2023-01-31T10:26:44.707Z,815
2023-01-31T10:31:47.379Z,803
2023-01-31T10:37:06.043Z,801
2023-01-31T10:42:24.528Z,789
2023-01-31T10:47:43.658Z,785
2023-01-31T10:53:02.857Z,798
2023-01-31T10:58:21.792Z,791
2023-01-31T11:03:40.543Z,786
2023-01-31T11:08:58.496Z,793
2023-01-31T11:14:16.715Z,796
2023-01-31T11:19:35.692Z,795
2023-01-31T11:24:53.984Z,785
2023-01-31T11:30:12.769Z,777
2023-01-31T11:35:31.003Z,772
2023-01-31T11:40:49.175Z,770
2023-01-31T11:46:07.380Z,766
2023-01-31T11:51:25.653Z,759
2023-01-31T11:56:43.954Z,749
2023-01-31T12:02:02.812Z,747
2023-01-31T12:07:21.729Z,736
2023-01-31T12:12:40.252Z,734
2023-01-31T12:17:59.034Z,730
2023-01-31T12:23:17.620Z,723
2023-01-31T12:28:35.866Z,722
2023-01-31T12:33:54.617Z,723
2023-01-31T12:39:13.189Z,717
2023-01-31T12:44:31.139Z,713
2023-01-31T12:49:49.796Z,714
2023-01-31T12:55:08.335Z,707
2023-01-31T13:00:26.665Z,705
2023-01-31T13:05:44.851Z,705
2023-01-31T13:11:03.475Z,703
2023-01-31T13:16:22.112Z,699
2023-01-31T13:21:40.796Z,697
2023-01-31T13:26:59.309Z,697
2023-01-31T13:32:17.801Z,685
2023-01-31T13:37:35.978Z,680
2023-01-31T13:42:54.193Z,676
2023-01-31T13:48:12.431Z,675
2023-01-31T13:53:30.897Z,676
2023-01-31T13:58:49.239Z,671
2023-01-31T14:04:07.169Z,673
2023-01-31T14:09:25.432Z,672
2023-01-31T14:14:44.064Z,672
2023-01-31T14:20:02.548Z,709
2023-01-31T14:25:21.406Z,707
2023-01-31T14:30:40.591Z,707
2023-01-31T14:35:59.981Z,712
2023-01-31T14:41:18.394Z,698
2023-01-31T14:46:36.447Z,694
2023-01-31T14:51:54.967Z,693
2023-01-31T14:57:13.175Z,694
2023-01-31T15:02:32.221Z,696
2023-01-31T15:07:50.847Z,693
2023-01-31T15:13:09.100Z,694
2023-01-31T15:18:27.900Z,702
2023-01-31T15:23:45.823Z,702
2023-01-31T15:29:03.774Z,714
2023-01-31T15:34:22.804Z,719
2023-01-31T15:39:40.779Z,722
2023-01-31T15:44:59.526Z,727
2023-01-31T15:50:18.541Z,748
2023-01-31T15:55:37.751Z,759
2023-01-31T16:00:56.165Z,755
2023-01-31T16:06:14.552Z,752
2023-01-31T16:11:34.372Z,764
2023-01-31T16:16:52.940Z,758
2023-01-31T16:22:11.051Z,767
2023-01-31T16:27:29.529Z,764
2023-01-31T16:32:48.315Z,758
2023-01-31T16:38:06.790Z,772
2023-01-31T16:43:25.327Z,794
2023-01-31T16:48:43.854Z,824
2023-01-31T16:54:02.629Z,867
2023-01-31T16:59:21.129Z,865
2023-01-31T17:04:39.670Z,849
2023-01-31T17:09:59.079Z,837
2023-01-31T17:15:23.506Z,831
2023-01-31T17:20:56.563Z,798
2023-01-31T17:26:16.831Z,762
2023-01-31T17:31:40.664Z,733
2023-01-31T17:37:03.232Z,715
2023-01-31T17:42:22.142Z,695
2023-01-31T17:47:52.064Z,689
2023-01-31T17:53:10.813Z,677
2023-01-31T17:58:33.550Z,670
2023-01-31T18:03:58.247Z,668
2023-01-31T18:09:16.843Z,676
2023-01-31T18:14:35.319Z,684
2023-01-31T18:19:38.486Z,692
2023-01-31T18:24:57.036Z,692
2023-01-31T18:30:15.319Z,701
2023-01-31T18:35:33.862Z,702
2023-01-31T18:40:52.038Z,710
2023-01-31T18:46:10.404Z,751
2023-01-31T18:51:29.266Z,757
2023-01-31T18:56:47.734Z,806
2023-01-31T19:02:09.038Z,797
2023-01-31T19:07:27.820Z,798
2023-01-31T19:12:46.429Z,791
2023-01-31T19:18:05.632Z,802
2023-01-31T19:23:24.625Z,817
2023-01-31T19:28:43.807Z,826
2023-01-31T19:34:02.644Z,833
2023-01-31T19:39:21.077Z,853
2023-01-31T19:44:39.427Z,875
2023-01-31T19:49:58.124Z,887
2023-01-31T19:55:16.792Z,902
2023-01-31T20:00:35.564Z,935
2023-01-31T20:05:53.946Z,975
2023-01-31T20:11:12.040Z,1002
2023-01-31T20:16:30.566Z,1016
2023-01-31T20:21:49.296Z,1046
2023-01-31T20:27:08.099Z,1068
2023-01-31T20:32:26.445Z,1078
2023-01-31T20:37:44.944Z,1106
2023-01-31T20:43:02.948Z,1123
2023-01-31T20:48:07.924Z,1144
2023-01-31T20:53:26.688Z,1172
2023-01-31T20:58:45.185Z,1208
2023-01-31T21:04:03.647Z,1242
2023-01-31T21:09:23.275Z,1249
2023-01-31T21:14:41.934Z,1249
2023-01-31T21:20:00.680Z,1218
2023-01-31T21:25:19.481Z,1217
2023-01-31T21:30:38.092Z,1204
2023-01-31T21:35:57.139Z,1197
2023-01-31T21:41:15.405Z,1184
2023-01-31T21:46:33.728Z,1222
2023-01-31T21:51:51.895Z,1238
2023-01-31T21:57:10.133Z,1263
2023-01-31T22:02:28.451Z,1285
2023-01-31T22:07:46.753Z,1292
2023-01-31T22:13:05.250Z,1291
2023-01-31T22:18:23.748Z,1298
2023-01-31T22:23:42.279Z,1292
2023-01-31T22:29:01.047Z,1300
2023-01-31T22:34:19.239Z,1292
2023-01-31T22:39:37.493Z,1289
2023-01-31T22:44:56.287Z,1287
2023-01-31T22:50:15.023Z,1289
2023-01-31T22:55:33.267Z,1292
2023-01-31T23:00:54.231Z,1294
2023-01-31T23:06:12.694Z,1286
2023-01-31T23:11:30.936Z,1276
2023-01-31T23:16:49.434Z,1285
2023-01-31T23:22:07.717Z,1277
2023-01-31T23:27:25.916Z,1278
2023-01-31T23:32:44.710Z,1277
2023-01-31T23:38:03.239Z,1275
2023-01-31T23:43:21.717Z,1273
2023-01-31T23:48:40.561Z,1274
2023-01-31T23:53:59.046Z,1278
2023-01-31T23:59:20.498Z,1274
